Latest Weather Observations for Hay Point

IDQ60801

Issued at 6:22 am EST Wednesday 8 April 2020 (issued every 10 minutes, with the page automatically refreshed every 10 minutes)

About weather observations | Map of weather stations | Latest weather observations for QLD | Other Formats
Station Details ID: 033317 Name: HAY POINT Lat: -21.29 Lon: 149.30 Height: 7.0 m
Data from the previous 72 hours. | See also: Recent months for locations in Queensland
Date/Time
EST
Temp
°C
App
Temp
°C
Dew
Point
°C
Rel
Hum
%
Delta-T
°C
Wind Press
QNH
hPa
Press
MSL
hPa
Rain since
9am
mm
Dir  Spd
km/h
Gust
km/h
Spd
kts
Gust
kts
08/06:00am - - - - - SW 13 15 7 8 - - -
08/05:30am - - - - - SSW 20 26 11 14 - - -
08/05:00am - - - - - S 17 26 9 14 - - -
08/04:30am - - - - - SSW 13 20 7 11 - - -
08/04:00am - - - - - SSW 13 17 7 9 - - -
08/03:30am - - - - - SSW 13 17 7 9 - - -
08/03:00am - - - - - SSW 19 22 10 12 - - -
08/02:30am - - - - - S 19 33 10 18 - - -
08/02:00am - - - - - ESE 28 32 15 17 - - -
08/01:30am - - - - - ESE 28 35 15 19 - - -
08/01:00am - - - - - SE 24 32 13 17 - - -
08/12:30am - - - - - SE 24 32 13 17 - - -
08/12:00am - - - - - SE 22 30 12 16 - - -
 
Date/Time
EST
Temp
°C
App
Temp
°C
Dew
Point
°C
Rel
Hum
%
Delta-T
°C
Wind Press
QNH
hPa
Press
MSL
hPa
Rain since
9am
mm
Dir  Spd
km/h
Gust
km/h
Spd
kts
Gust
kts
07/11:30pm - - - - - SE 24 32 13 17 - - -
07/11:00pm - - - - - SE 26 32 14 17 - - -
07/10:30pm - - - - - ESE 28 35 15 19 - - -
07/10:00pm - - - - - ESE 32 35 17 19 - - -
07/09:30pm - - - - - ESE 32 37 17 20 - - -
07/09:00pm - - - - - ESE 32 35 17 19 - - -
07/08:30pm - - - - - ESE 32 37 17 20 - - -
07/08:00pm - - - - - ESE 30 35 16 19 - - -
07/07:30pm - - - - - ESE 30 35 16 19 - - -
07/07:00pm - - - - - ESE 30 35 16 19 - - -
07/06:30pm - - - - - ESE 28 33 15 18 - - -
07/06:00pm - - - - - ESE 26 32 14 17 - - -
07/05:30pm - - - - - SE 24 32 13 17 - - -
07/05:00pm - - - - - SE 20 32 11 17 - - -
07/04:30pm - - - - - ESE 22 32 12 17 - - -
07/04:00pm - - - - - SSE 22 30 12 16 - - -
07/03:30pm - - - - - SE 20 32 11 17 - - -
07/03:00pm - - - - - SE 20 30 11 16 - - -
07/02:30pm - - - - - SE 22 32 12 17 - - -
07/02:00pm - - - - - SSE 26 32 14 17 - - -
07/01:30pm - - - - - SE 26 35 14 19 - - -
07/01:00pm - - - - - SE 28 33 15 18 - - -
07/12:30pm - - - - - SE 28 35 15 19 - - -
07/12:00pm - - - - - SSE 30 35 16 19 - - -
07/11:30am - - - - - SSE 32 35 17 19 - - -
07/11:00am - - - - - SSE 30 37 16 20 - - -
07/10:30am - - - - - SE 28 35 15 19 - - -
07/10:00am - - - - - SSE 32 37 17 20 - - -
07/09:30am - - - - - SSE 22 33 12 18 - - -
07/09:00am - - - - - SSE 24 30 13 16 - - -
07/08:30am - - - - - S 20 26 11 14 - - -
07/08:00am - - - - - S 17 24 9 13 - - -
07/07:30am - - - - - SSW 17 20 9 11 - - -
07/07:00am - - - - - SSW 17 24 9 13 - - -
07/06:30am - - - - - SSW 20 26 11 14 - - -
07/06:00am - - - - - SSW 20 28 11 15 - - -
07/05:30am - - - - - SSE 28 41 15 22 - - -
07/05:00am - - - - - SE 22 33 12 18 - - -
07/04:30am - - - - - S 19 26 10 14 - - -
07/04:00am - - - - - SSW 17 19 9 10 - - -
07/03:30am - - - - - SSW 13 15 7 8 - - -
07/03:00am - - - - - S 13 17 7 9 - - -
07/02:30am - - - - - S 13 17 7 9 - - -
07/02:00am - - - - - SSW 17 20 9 11 - - -
07/01:30am - - - - - SSW 15 19 8 10 - - -
07/01:00am - - - - - S 15 22 8 12 - - -
07/12:30am - - - - - ESE 22 28 12 15 - - -
07/12:00am - - - - - ESE 22 28 12 15 - - -
 
Date/Time
EST
Temp
°C
App
Temp
°C
Dew
Point
°C
Rel
Hum
%
Delta-T
°C
Wind Press
QNH
hPa
Press
MSL
hPa
Rain since
9am
mm
Dir  Spd
km/h
Gust
km/h
Spd
kts
Gust
kts
06/11:30pm - - - - - ESE 26 32 14 17 - - -
06/11:00pm - - - - - ESE 26 30 14 16 - - -
06/10:30pm - - - - - ESE 28 32 15 17 - - -
06/10:00pm - - - - - ESE 24 30 13 16 - - -
06/09:30pm - - - - - ESE 24 30 13 16 - - -
06/09:00pm - - - - - ESE 26 32 14 17 - - -
06/08:30pm - - - - - ESE 24 28 13 15 - - -
06/08:00pm - - - - - ESE 22 28 12 15 - - -
06/07:30pm - - - - - ESE 24 30 13 16 - - -
06/07:00pm - - - - - ESE 24 30 13 16 - - -
06/06:30pm - - - - - ESE 22 30 12 16 - - -
06/06:00pm - - - - - ESE 24 28 13 15 - - -
06/05:30pm - - - - - ESE 26 30 14 16 - - -
06/05:00pm - - - - - ESE 24 30 13 16 - - -
06/04:30pm - - - - - ESE 26 32 14 17 - - -
06/04:00pm - - - - - ESE 28 33 15 18 - - -
06/03:30pm - - - - - ESE 28 35 15 19 - - -
06/03:00pm - - - - - ESE 28 33 15 18 - - -
06/02:30pm - - - - - ESE 28 35 15 19 - - -
06/02:00pm - - - - - SE 28 33 15 18 - - -
06/01:30pm - - - - - SE 24 33 13 18 - - -
06/01:00pm - - - - - SE 24 33 13 18 - - -
06/12:30pm - - - - - SE 28 33 15 18 - - -
06/12:00pm - - - - - SE 26 32 14 17 - - -
06/11:30am - - - - - SSE 30 33 16 18 - - -
06/11:00am - - - - - SSE 28 33 15 18 - - -
06/10:30am - - - - - SSE 28 33 15 18 - - -
06/10:00am - - - - - SSE 30 35 16 19 - - -
06/09:30am - - - - - SSE 22 28 12 15 - - -
06/09:00am - - - - - S 22 28 12 15 - - -
06/08:30am - - - - - SSE 26 32 14 17 - - -
06/08:00am - - - - - S 26 32 14 17 - - -
06/07:30am - - - - - S 24 28 13 15 - - -
06/07:00am - - - - - S 20 26 11 14 - - -
06/06:30am - - - - - S 17 22 9 12 - - -
06/06:00am - - - - - SSW 15 19 8 10 - - -
06/05:30am - - - - - SSW 13 19 7 10 - - -
06/05:00am - - - - - SSW 15 19 8 10 - - -
06/04:30am - - - - - SSW 13 17 7 9 - - -
06/04:00am - - - - - SSW 11 15 6 8 - - -
06/03:30am - - - - - ESE 13 15 7 8 - - -
06/03:00am - - - - - ESE 13 19 7 10 - - -
06/02:30am - - - - - ESE 17 19 9 10 - - -
06/02:00am - - - - - ESE 15 19 8 10 - - -
06/01:30am - - - - - E 15 17 8 9 - - -
06/01:00am - - - - - E 13 15 7 8 - - -
06/12:30am - - - - - E 20 24 11 13 - - -
06/12:00am - - - - - E 20 24 11 13 - - -
 
Date/Time
EST
Temp
°C
App
Temp
°C
Dew
Point
°C
Rel
Hum
%
Delta-T
°C
Wind Press
QNH
hPa
Press
MSL
hPa
Rain since
9am
mm
Dir  Spd
km/h
Gust
km/h
Spd
kts
Gust
kts
05/11:30pm - - - - - E 22 26 12 14 - - -
05/11:00pm - - - - - E 19 22 10 12 - - -
05/10:30pm - - - - - E 19 22 10 12 - - -
05/10:00pm - - - - - ESE 15 19 8 10 - - -
05/09:30pm - - - - - ESE 13 17 7 9 - - -
05/09:00pm - - - - - SSW 7 9 4 5 - - -
05/08:30pm - - - - - ESE 7 9 4 5 - - -
05/08:00pm - - - - - E 9 11 5 6 - - -
05/07:30pm - - - - - E 11 13 6 7 - - -
05/07:00pm - - - - - ENE 15 17 8 9 - - -
05/06:30pm - - - - - ENE 13 17 7 9 - - -
05/06:00pm - - - - - E 15 19 8 10 - - -
05/05:30pm - - - - - E 17 19 9 10 - - -
05/05:00pm - - - - - E 19 20 10 11 - - -
05/04:30pm - - - - - E 20 26 11 14 - - -
05/04:00pm - - - - - E 20 22 11 12 - - -
05/03:30pm - - - - - ESE 20 26 11 14 - - -
05/03:00pm - - - - - ESE 20 26 11 14 - - -
05/02:30pm - - - - - E 22 26 12 14 - - -
05/02:00pm - - - - - ESE 24 26 13 14 - - -
05/01:30pm - - - - - ESE 22 26 12 14 - - -
05/01:00pm - - - - - ESE 22 26 12 14 - - -
05/12:30pm - - - - - ESE 24 28 13 15 - - -
05/12:00pm - - - - - ESE 19 24 10 13 - - -
05/11:30am - - - - - ESE 13 15 7 8 - - -
05/11:00am - - - - - ESE 11 13 6 7 - - -
05/10:30am - - - - - SE 11 13 6 7 - - -
05/10:00am - - - - - SE 11 15 6 8 - - -
05/09:30am - - - - - SE 13 15 7 8 - - -
05/09:00am - - - - - SE 11 13 6 7 - - -
05/08:30am - - - - - SSE 11 13 6 7 - - -
05/08:00am - - - - - S 11 13 6 7 - - -
05/07:30am - - - - - SSW 11 13 6 7 - - -
05/07:00am - - - - - SW 11 13 6 7 - - -
05/06:30am - - - - - SW 11 13 6 7 - - -

Other formats

Comma delimited format used in spreadsheet applications
http://www.bom.gov.au/fwo/IDQ60801/IDQ60801.99367.axf

JavaScript Object Notation format (JSON) in row-major order
http://www.bom.gov.au/fwo/IDQ60801/IDQ60801.99367.json

Data quality

Most of these data are generated automatically and are frequently updated. Quality checks on data are not normally performed. It is possible for incorrect values to appear. Refer to information at About Latest Weather Observations and please check the disclaimer before using these data.